createdAt,value
2023-04-30T00:01:44.751Z,17.16
2023-04-30T00:03:46.533Z,17.14
2023-04-30T00:05:50.755Z,17.23
2023-04-30T00:07:54.061Z,17.23
2023-04-30T00:09:56.451Z,17.23
2023-04-30T00:11:59.723Z,17.27
2023-04-30T00:14:01.586Z,17.27
2023-04-30T00:16:03.643Z,17.29
2023-04-30T00:18:06.987Z,17.42
2023-04-30T00:20:09.436Z,17.39
2023-04-30T00:22:11.220Z,17.38
2023-04-30T00:24:14.421Z,17.34
2023-04-30T00:26:16.104Z,17.25
2023-04-30T00:28:17.762Z,17.38
2023-04-30T00:30:19.446Z,17.20
2023-04-30T00:32:22.341Z,17.18
2023-04-30T00:34:24.272Z,17.23
2023-04-30T00:36:27.329Z,17.26
2023-04-30T00:38:28.921Z,17.27
2023-04-30T00:40:34.883Z,17.19
2023-04-30T00:42:36.863Z,17.08
2023-04-30T00:44:38.601Z,17.04
2023-04-30T00:46:40.439Z,16.98
2023-04-30T00:48:42.902Z,16.94
2023-04-30T00:50:44.983Z,16.96
2023-04-30T00:52:46.862Z,16.96
2023-04-30T00:54:49.235Z,16.99
2023-04-30T00:56:52.383Z,17.04
2023-04-30T00:58:55.780Z,17.05
2023-04-30T01:00:58.239Z,17.02
2023-04-30T01:03:00.746Z,17.09
2023-04-30T01:05:02.650Z,17.02
2023-04-30T01:07:04.588Z,16.98
2023-04-30T01:09:06.625Z,17.07
2023-04-30T01:11:17.189Z,17.04
2023-04-30T01:13:28.769Z,16.77
2023-04-30T01:15:38.389Z,16.72
2023-04-30T01:17:47.645Z,16.63
2023-04-30T01:19:49.962Z,16.64
2023-04-30T01:21:53.528Z,16.57
2023-04-30T01:24:08.732Z,16.70
2023-04-30T01:26:15.646Z,16.61
2023-04-30T01:28:18.971Z,16.68
2023-04-30T01:30:22.586Z,16.71
2023-04-30T01:32:24.231Z,16.77
2023-04-30T01:34:25.899Z,16.74
2023-04-30T01:36:42.259Z,16.85
2023-04-30T01:39:02.699Z,16.71
2023-04-30T01:41:11.346Z,16.81
2023-04-30T01:43:30.092Z,16.80
2023-04-30T01:45:47.138Z,16.78
2023-04-30T01:47:56.008Z,16.76
2023-04-30T01:50:09.860Z,16.75
2023-04-30T01:52:20.476Z,16.75
2023-04-30T01:54:31.515Z,16.73
2023-04-30T01:56:40.738Z,16.68
2023-04-30T01:58:46.260Z,16.63
2023-04-30T02:00:48.205Z,16.61
2023-04-30T02:02:50.149Z,16.48
2023-04-30T02:04:51.838Z,16.55
2023-04-30T02:06:53.840Z,16.65
2023-04-30T02:08:55.983Z,16.66
2023-04-30T02:10:57.566Z,16.64
2023-04-30T02:12:59.380Z,16.71
2023-04-30T02:15:03.334Z,16.75
2023-04-30T02:17:04.931Z,16.77
2023-04-30T02:19:07.760Z,16.83
2023-04-30T02:21:09.418Z,16.69
2023-04-30T02:23:11.042Z,16.72
2023-04-30T02:25:13.657Z,16.76
2023-04-30T02:27:17.516Z,16.74
2023-04-30T02:29:19.463Z,16.68
2023-04-30T02:31:24.870Z,16.70
2023-04-30T02:33:26.552Z,16.82
2023-04-30T02:35:28.236Z,16.48
2023-04-30T02:37:33.174Z,16.32
2023-04-30T02:39:34.873Z,16.44
2023-04-30T02:41:36.451Z,16.44
2023-04-30T02:43:38.206Z,16.72
2023-04-30T02:45:39.885Z,16.51
2023-04-30T02:47:42.923Z,16.43
2023-04-30T02:49:44.495Z,16.52
2023-04-30T02:51:46.435Z,16.48
2023-04-30T02:53:48.293Z,16.43
2023-04-30T02:55:49.957Z,16.41
2023-04-30T02:57:51.855Z,16.52
2023-04-30T02:59:53.733Z,16.32
2023-04-30T03:01:55.619Z,16.36
2023-04-30T03:03:58.596Z,16.50
2023-04-30T03:06:00.203Z,16.28
2023-04-30T03:08:01.813Z,16.37
2023-04-30T03:10:09.048Z,16.32
2023-04-30T03:12:10.653Z,16.28
2023-04-30T03:14:12.321Z,16.33
2023-04-30T03:16:13.922Z,16.36
2023-04-30T03:18:15.548Z,16.30
2023-04-30T03:20:18.652Z,16.32
2023-04-30T03:22:20.619Z,16.22
2023-04-30T03:24:22.174Z,16.21
2023-04-30T03:26:24.259Z,16.17
2023-04-30T03:28:25.789Z,16.14
2023-04-30T03:30:27.379Z,16.14
2023-04-30T03:32:29.011Z,16.01
2023-04-30T03:34:31.833Z,16.17
2023-04-30T03:36:34.798Z,16.16
2023-04-30T03:38:36.427Z,16.04
2023-04-30T03:40:38.453Z,16.03
2023-04-30T03:42:40.412Z,16.03
2023-04-30T03:44:42.240Z,16.00
2023-04-30T03:46:44.220Z,15.95
2023-04-30T03:48:45.973Z,16.11
2023-04-30T03:50:47.766Z,16.06
2023-04-30T03:52:50.766Z,16.14
2023-04-30T03:54:52.361Z,16.09
2023-04-30T03:56:54.027Z,16.07
2023-04-30T03:58:55.617Z,16.12
2023-04-30T04:00:59.308Z,16.14
2023-04-30T04:03:01.050Z,16.10
2023-04-30T04:05:03.157Z,16.08
2023-04-30T04:07:04.736Z,16.11
2023-04-30T04:09:10.298Z,16.06
2023-04-30T04:11:12.241Z,16.05
2023-04-30T04:13:13.799Z,16.06
2023-04-30T04:15:15.449Z,16.11
2023-04-30T04:17:17.221Z,16.05
2023-04-30T04:19:18.910Z,16.17
2023-04-30T04:21:20.953Z,16.09
2023-04-30T04:23:22.627Z,16.10
2023-04-30T04:25:25.894Z,16.11
2023-04-30T04:27:27.561Z,16.19
2023-04-30T04:29:29.118Z,16.42
2023-04-30T04:31:30.816Z,16.59
2023-04-30T04:33:32.697Z,16.33
2023-04-30T04:35:34.426Z,16.18
2023-04-30T04:37:35.978Z,16.21
2023-04-30T04:39:38.785Z,16.19
2023-04-30T04:41:41.720Z,16.16
2023-04-30T04:43:47.448Z,16.14
2023-04-30T04:45:49.111Z,16.17
2023-04-30T04:47:51.091Z,16.14
2023-04-30T04:49:53.538Z,16.12
2023-04-30T04:51:55.492Z,16.22
2023-04-30T04:54:01.209Z,16.21
2023-04-30T04:56:05.276Z,16.14
2023-04-30T04:58:08.334Z,16.11
2023-04-30T05:00:10.485Z,16.11
2023-04-30T05:02:12.134Z,16.13
2023-04-30T05:04:14.135Z,16.16
2023-04-30T05:06:15.861Z,16.21
2023-04-30T05:08:17.483Z,16.29
2023-04-30T05:10:19.188Z,16.25
2023-04-30T05:12:20.751Z,16.32
2023-04-30T05:14:23.777Z,16.36
2023-04-30T05:16:25.748Z,16.38
2023-04-30T05:18:27.667Z,16.32
2023-04-30T05:20:29.373Z,16.37
2023-04-30T05:22:30.904Z,16.38
2023-04-30T05:24:32.558Z,16.45
2023-04-30T05:26:34.134Z,16.45
2023-04-30T05:28:35.830Z,16.38
2023-04-30T05:30:38.718Z,16.43
2023-04-30T05:32:40.334Z,16.46
2023-04-30T05:34:42.020Z,16.47
2023-04-30T05:36:44.389Z,16.51
2023-04-30T05:38:46.013Z,16.59
2023-04-30T05:40:47.676Z,16.56
2023-04-30T05:42:49.179Z,16.42
2023-04-30T05:44:50.780Z,16.48
2023-04-30T05:46:53.649Z,16.12
2023-04-30T05:48:55.222Z,16.09
2023-04-30T05:50:56.776Z,16.11
2023-04-30T05:52:58.349Z,16.14
2023-04-30T05:54:59.913Z,16.30
2023-04-30T05:57:01.498Z,16.36
2023-04-30T05:59:03.030Z,16.46
2023-04-30T06:01:06.551Z,16.49
2023-04-30T06:03:09.593Z,16.44
2023-04-30T06:05:11.487Z,16.53
2023-04-30T06:07:14.021Z,16.57
2023-04-30T06:09:15.648Z,16.69
2023-04-30T06:11:17.265Z,16.93
2023-04-30T06:13:18.831Z,17.14
2023-04-30T06:15:20.403Z,17.43
2023-04-30T06:17:22.022Z,17.55
2023-04-30T06:19:24.987Z,17.64
2023-04-30T06:21:26.522Z,17.70
2023-04-30T06:23:28.075Z,17.68
2023-04-30T06:25:29.639Z,17.64
2023-04-30T06:27:31.213Z,17.45
2023-04-30T06:29:32.795Z,17.42
2023-04-30T06:31:34.471Z,17.41
2023-04-30T06:33:36.088Z,17.37
2023-04-30T06:35:42.031Z,17.51
2023-04-30T06:37:43.635Z,17.49
2023-04-30T06:39:45.322Z,17.28
2023-04-30T06:41:47.256Z,17.46
2023-04-30T06:43:48.751Z,17.41
2023-04-30T06:45:50.420Z,17.37
2023-04-30T06:47:52.151Z,17.37
2023-04-30T06:49:53.951Z,17.42
2023-04-30T06:51:56.990Z,17.42
2023-04-30T06:54:00.539Z,17.47
2023-04-30T06:56:02.217Z,17.43
2023-04-30T06:58:03.803Z,17.47
2023-04-30T07:00:05.960Z,17.46
2023-04-30T07:02:07.589Z,17.46
2023-04-30T07:04:09.282Z,17.44
2023-04-30T07:06:10.916Z,17.49
2023-04-30T07:08:13.811Z,17.53
2023-04-30T07:10:15.385Z,17.61
2023-04-30T07:12:16.983Z,17.75
2023-04-30T07:14:18.526Z,17.83
2023-04-30T07:16:20.132Z,17.99
2023-04-30T07:18:23.964Z,18.12
2023-04-30T07:20:25.736Z,18.17
2023-04-30T07:22:27.276Z,18.22
2023-04-30T07:24:31.161Z,18.28
2023-04-30T07:26:32.822Z,18.35
2023-04-30T07:28:34.414Z,18.52
2023-04-30T07:30:35.981Z,18.59
2023-04-30T07:32:38.146Z,18.61
2023-04-30T07:34:39.845Z,18.65
2023-04-30T07:36:41.419Z,18.76
2023-04-30T07:38:42.931Z,18.78
2023-04-30T07:40:45.841Z,18.85
2023-04-30T07:42:47.411Z,18.72
2023-04-30T07:44:49.038Z,18.81
2023-04-30T07:46:50.657Z,18.90
2023-04-30T07:48:52.285Z,18.99
2023-04-30T07:50:53.882Z,19.05
2023-04-30T07:52:55.429Z,19.02
2023-04-30T07:54:57.021Z,19.04
2023-04-30T07:56:59.889Z,18.97
2023-04-30T07:59:01.480Z,19.06
2023-04-30T08:01:03.068Z,19.07
2023-04-30T08:03:04.746Z,19.18
2023-04-30T08:05:06.819Z,19.27
2023-04-30T08:07:08.343Z,19.35
2023-04-30T08:09:09.914Z,19.40
2023-04-30T08:11:11.536Z,19.43
2023-04-30T08:13:14.488Z,19.39
2023-04-30T08:15:16.019Z,19.42
2023-04-30T08:17:17.583Z,19.45
2023-04-30T08:19:19.165Z,19.46
2023-04-30T08:21:20.786Z,19.46
2023-04-30T08:23:22.330Z,19.32
2023-04-30T08:25:24.105Z,19.24
2023-04-30T08:27:25.641Z,19.23
2023-04-30T08:29:28.587Z,19.30
2023-04-30T08:31:30.221Z,19.30
2023-04-30T08:33:31.788Z,19.33
2023-04-30T08:35:33.365Z,19.33
2023-04-30T08:37:34.963Z,19.27
2023-04-30T08:39:36.591Z,19.33
2023-04-30T08:41:39.277Z,19.39
2023-04-30T08:43:41.400Z,19.41
2023-04-30T08:45:45.133Z,19.44
2023-04-30T08:47:47.833Z,19.55
2023-04-30T08:49:49.847Z,19.62
2023-04-30T08:51:51.777Z,19.62
2023-04-30T08:53:55.355Z,19.64
2023-04-30T08:55:57.200Z,19.67
2023-04-30T08:57:58.807Z,19.78
2023-04-30T09:00:00.672Z,19.87
2023-04-30T09:02:04.795Z,19.98
2023-04-30T09:04:06.875Z,19.95
2023-04-30T09:06:08.558Z,19.96
2023-04-30T09:08:16.632Z,19.95
2023-04-30T09:10:19.557Z,20.07
2023-04-30T09:12:21.234Z,20.01
2023-04-30T09:14:24.699Z,20.02
2023-04-30T09:16:28.023Z,20.02
2023-04-30T09:18:39.158Z,20.03
2023-04-30T09:20:55.518Z,20.09
2023-04-30T09:23:06.182Z,20.07
2023-04-30T09:25:09.027Z,20.10
2023-04-30T09:27:16.593Z,20.17
2023-04-30T09:29:18.238Z,20.15
2023-04-30T09:31:20.524Z,20.00
2023-04-30T09:33:22.653Z,20.02
2023-04-30T09:35:32.425Z,20.08
2023-04-30T09:37:37.742Z,20.07
2023-04-30T09:39:50.082Z,20.02
2023-04-30T09:42:07.497Z,20.02
2023-04-30T09:44:26.797Z,20.18
2023-04-30T09:46:31.059Z,20.31
2023-04-30T09:48:32.895Z,20.25
2023-04-30T09:50:39.543Z,20.16
2023-04-30T09:52:51.859Z,20.24
2023-04-30T09:54:53.388Z,20.32
2023-04-30T09:56:56.074Z,20.38
2023-04-30T09:58:57.965Z,20.37
2023-04-30T10:01:03.530Z,20.31
2023-04-30T10:03:07.418Z,20.33
2023-04-30T10:05:09.681Z,20.33
2023-04-30T10:07:17.113Z,20.32
2023-04-30T10:09:19.884Z,20.29
2023-04-30T10:11:26.534Z,20.26
2023-04-30T10:13:33.288Z,20.21
2023-04-30T10:15:38.277Z,20.26
2023-04-30T10:17:41.373Z,20.19
2023-04-30T10:19:48.143Z,20.15
2023-04-30T10:21:49.988Z,20.09
2023-04-30T10:23:54.249Z,20.21
2023-04-30T10:25:57.421Z,20.29
2023-04-30T10:27:59.030Z,20.41
2023-04-30T10:30:01.710Z,20.36
2023-04-30T10:32:04.133Z,20.45
2023-04-30T10:34:17.702Z,20.53
2023-04-30T10:36:28.112Z,20.58
2023-04-30T10:38:32.135Z,20.62
2023-04-30T10:40:38.513Z,20.56
2023-04-30T10:42:45.733Z,20.57
2023-04-30T10:44:47.322Z,20.58
2023-04-30T10:46:48.970Z,20.63
2023-04-30T10:48:52.589Z,20.64
2023-04-30T10:50:56.692Z,20.70
2023-04-30T10:53:02.429Z,20.62
2023-04-30T10:55:05.449Z,20.65
2023-04-30T10:57:12.853Z,20.67
2023-04-30T10:59:14.639Z,20.60
2023-04-30T11:01:18.804Z,20.50
2023-04-30T11:03:22.238Z,20.39
2023-04-30T11:05:35.152Z,20.49
2023-04-30T11:07:36.918Z,20.43
2023-04-30T11:09:43.291Z,20.39
2023-04-30T11:11:45.024Z,20.33
2023-04-30T11:13:57.820Z,20.38
2023-04-30T11:16:02.960Z,20.41
2023-04-30T11:18:04.673Z,20.47
2023-04-30T11:20:17.151Z,20.59
2023-04-30T11:22:21.389Z,20.56
2023-04-30T11:24:22.998Z,20.71
2023-04-30T11:26:26.316Z,20.72
2023-04-30T11:28:28.523Z,20.68
2023-04-30T11:30:33.095Z,20.67
2023-04-30T11:32:35.747Z,20.68
2023-04-30T11:34:38.001Z,20.58
2023-04-30T11:36:41.186Z,20.52
2023-04-30T11:38:43.427Z,20.53
2023-04-30T11:40:45.472Z,20.52
2023-04-30T11:42:47.330Z,20.51
2023-04-30T11:44:49.002Z,20.56
2023-04-30T11:46:52.255Z,20.63
2023-04-30T11:48:53.920Z,20.56
2023-04-30T11:50:55.497Z,20.53
2023-04-30T11:52:58.449Z,20.56
2023-04-30T11:55:00.048Z,20.59
2023-04-30T11:57:01.714Z,20.75
2023-04-30T11:59:10.549Z,20.80
2023-04-30T12:01:12.211Z,20.91
2023-04-30T12:03:15.421Z,20.98
2023-04-30T12:05:18.927Z,20.99
2023-04-30T12:07:22.581Z,20.96
2023-04-30T12:09:24.514Z,21.00
2023-04-30T12:11:27.728Z,21.09
2023-04-30T12:13:33.551Z,21.21
2023-04-30T12:15:35.169Z,21.32
2023-04-30T12:17:36.781Z,21.54
2023-04-30T12:19:39.819Z,21.91
2023-04-30T12:21:42.930Z,22.23
2023-04-30T12:23:44.542Z,22.45
2023-04-30T12:25:46.155Z,22.72
2023-04-30T12:27:49.271Z,23.03
2023-04-30T12:29:50.940Z,23.31
2023-04-30T12:31:54.049Z,23.66
2023-04-30T12:33:55.974Z,24.21
2023-04-30T12:35:59.034Z,24.89
2023-04-30T12:38:05.140Z,25.34
2023-04-30T12:40:08.212Z,25.65
2023-04-30T12:42:09.769Z,25.71
2023-04-30T12:44:19.496Z,26.16
2023-04-30T12:46:26.557Z,26.70
2023-04-30T12:48:28.171Z,27.04
2023-04-30T12:50:29.794Z,27.47
2023-04-30T12:52:32.972Z,27.78
2023-04-30T12:54:35.495Z,27.84
2023-04-30T12:56:37.076Z,27.70
2023-04-30T12:58:39.264Z,27.40
2023-04-30T13:00:49.118Z,27.26
2023-04-30T13:02:50.738Z,26.74
2023-04-30T13:04:53.611Z,27.09
2023-04-30T13:06:55.190Z,27.03
2023-04-30T13:08:59.080Z,26.73
2023-04-30T13:11:00.771Z,26.29
2023-04-30T13:13:02.341Z,26.00
2023-04-30T13:15:04.601Z,25.80
2023-04-30T13:17:06.532Z,25.77
2023-04-30T13:19:08.080Z,25.49
2023-04-30T13:21:09.591Z,25.19
2023-04-30T13:23:11.508Z,24.91
2023-04-30T13:25:14.471Z,24.69
2023-04-30T13:27:16.028Z,24.53
2023-04-30T13:29:17.582Z,24.25
2023-04-30T13:31:19.378Z,24.08
2023-04-30T13:33:21.025Z,24.14
2023-04-30T13:35:22.869Z,24.13
2023-04-30T13:37:24.420Z,24.28
2023-04-30T13:39:25.968Z,24.34
2023-04-30T13:41:28.782Z,24.23
2023-04-30T13:43:30.329Z,24.16
2023-04-30T13:45:34.879Z,24.14
2023-04-30T13:47:36.515Z,24.80
2023-04-30T13:49:38.086Z,24.49
2023-04-30T13:51:39.773Z,24.37
2023-04-30T13:53:41.372Z,24.71
2023-04-30T13:55:43.049Z,25.26
2023-04-30T13:57:45.971Z,25.66
2023-04-30T13:59:47.602Z,26.00
2023-04-30T14:01:49.228Z,26.06
2023-04-30T14:03:50.964Z,26.26
2023-04-30T14:05:52.728Z,26.58
2023-04-30T14:07:54.315Z,26.61
2023-04-30T14:09:56.357Z,26.10
2023-04-30T14:11:58.209Z,25.83
2023-04-30T14:14:01.066Z,25.44
2023-04-30T14:16:02.711Z,25.23
2023-04-30T14:18:04.522Z,25.00
2023-04-30T14:20:07.466Z,24.95
2023-04-30T14:22:09.353Z,24.89
2023-04-30T14:24:14.140Z,24.83
2023-04-30T14:26:16.042Z,25.02
2023-04-30T14:28:17.647Z,24.92
2023-04-30T14:30:20.676Z,24.65
2023-04-30T14:32:25.771Z,24.60
2023-04-30T14:34:27.869Z,24.46
2023-04-30T14:36:29.610Z,24.40
2023-04-30T14:38:31.273Z,24.50
2023-04-30T14:40:32.831Z,24.49
2023-04-30T14:42:34.524Z,24.41
2023-04-30T14:44:37.156Z,24.27
2023-04-30T14:46:40.110Z,24.14
2023-04-30T14:48:41.924Z,24.13
2023-04-30T14:50:43.801Z,24.05
2023-04-30T14:52:45.354Z,23.94
2023-04-30T14:54:46.939Z,23.79
2023-04-30T14:56:48.753Z,23.61
2023-04-30T14:58:50.567Z,23.60
2023-04-30T15:00:52.209Z,23.65
2023-04-30T15:02:55.205Z,23.58
2023-04-30T15:04:56.883Z,23.47
2023-04-30T15:06:58.482Z,23.51
2023-04-30T15:09:00.154Z,23.54
2023-04-30T15:11:01.807Z,23.46
2023-04-30T15:13:03.539Z,23.44
2023-04-30T15:15:06.574Z,23.40
2023-04-30T15:17:08.295Z,23.44
2023-04-30T15:19:11.659Z,23.36
2023-04-30T15:21:13.279Z,23.39
2023-04-30T15:23:14.855Z,23.31
2023-04-30T15:25:16.697Z,23.34
2023-04-30T15:27:18.344Z,23.31
2023-04-30T15:29:23.033Z,23.25
2023-04-30T15:31:24.764Z,23.32
2023-04-30T15:33:26.424Z,23.18
2023-04-30T15:35:29.506Z,23.24
2023-04-30T15:37:31.082Z,23.24
2023-04-30T15:39:32.605Z,23.17
2023-04-30T15:41:34.197Z,23.21
2023-04-30T15:43:35.766Z,23.21
2023-04-30T15:45:37.409Z,23.22
2023-04-30T15:47:39.494Z,23.25
2023-04-30T15:49:41.123Z,23.22
2023-04-30T15:51:44.069Z,23.18
2023-04-30T15:53:45.650Z,23.11
2023-04-30T15:55:48.296Z,23.04
2023-04-30T15:57:50.003Z,23.09
2023-04-30T15:59:51.547Z,23.08
2023-04-30T16:01:53.275Z,23.02
2023-04-30T16:03:55.081Z,23.02
2023-04-30T16:05:57.398Z,23.06
2023-04-30T16:08:00.552Z,23.03
2023-04-30T16:10:03.027Z,23.04
2023-04-30T16:12:04.515Z,22.83
2023-04-30T16:14:06.150Z,22.89
2023-04-30T16:16:08.120Z,22.79
2023-04-30T16:18:09.715Z,22.85
2023-04-30T16:20:12.344Z,22.84
2023-04-30T16:22:13.999Z,22.78
2023-04-30T16:24:16.879Z,22.79
2023-04-30T16:26:18.429Z,22.87
2023-04-30T16:28:19.976Z,23.01
2023-04-30T16:30:21.787Z,23.02
2023-04-30T16:32:23.466Z,22.96
2023-04-30T16:34:25.262Z,22.92
2023-04-30T16:36:26.883Z,23.02
2023-04-30T16:38:28.419Z,22.93
2023-04-30T16:40:31.447Z,22.92
2023-04-30T16:42:33.404Z,22.85
2023-04-30T16:44:35.098Z,22.72
2023-04-30T16:46:36.771Z,22.75
2023-04-30T16:48:38.477Z,22.67
2023-04-30T16:50:40.129Z,22.72
2023-04-30T16:52:41.759Z,22.72
2023-04-30T16:54:43.460Z,22.71
2023-04-30T16:56:46.721Z,22.61
2023-04-30T16:58:48.311Z,22.59
2023-04-30T17:00:49.949Z,22.57
2023-04-30T17:02:51.738Z,22.60
2023-04-30T17:04:53.354Z,22.61
2023-04-30T17:06:54.931Z,22.56
2023-04-30T17:08:56.562Z,22.55
2023-04-30T17:10:58.084Z,22.50
2023-04-30T17:13:02.143Z,22.58
2023-04-30T17:15:04.365Z,22.62
2023-04-30T17:17:05.973Z,22.61
2023-04-30T17:19:07.485Z,22.65
2023-04-30T17:21:09.122Z,22.63
2023-04-30T17:23:10.712Z,22.55
2023-04-30T17:25:12.278Z,22.54
2023-04-30T17:27:13.995Z,22.47
2023-04-30T17:29:17.051Z,22.45
2023-04-30T17:31:18.674Z,22.41
2023-04-30T17:33:20.284Z,22.38
2023-04-30T17:35:28.948Z,22.38
2023-04-30T17:37:30.480Z,22.33
2023-04-30T17:39:32.118Z,22.27
2023-04-30T17:41:33.813Z,22.19
2023-04-30T17:43:35.532Z,22.15
2023-04-30T17:45:38.584Z,22.14
2023-04-30T17:47:40.291Z,22.11
2023-04-30T17:49:41.894Z,22.08
2023-04-30T17:51:43.480Z,22.07
2023-04-30T17:53:45.082Z,22.11
2023-04-30T17:55:46.859Z,22.07
2023-04-30T17:57:48.505Z,22.06
2023-04-30T17:59:50.090Z,22.09
2023-04-30T18:01:55.844Z,22.11
2023-04-30T18:03:59.836Z,22.05
2023-04-30T18:06:01.666Z,22.02
2023-04-30T18:08:03.544Z,21.99
2023-04-30T18:10:06.138Z,22.02
2023-04-30T18:12:07.778Z,22.02
2023-04-30T18:14:09.249Z,21.94
2023-04-30T18:16:11.054Z,21.93
2023-04-30T18:18:14.527Z,21.91
2023-04-30T18:20:16.580Z,21.93
2023-04-30T18:22:18.618Z,21.93
2023-04-30T18:24:20.399Z,21.94
2023-04-30T18:26:22.556Z,21.94
2023-04-30T18:28:24.569Z,21.96
2023-04-30T18:30:26.490Z,21.94
2023-04-30T18:32:28.149Z,21.83
2023-04-30T18:34:31.509Z,21.80
2023-04-30T18:36:33.164Z,21.81
2023-04-30T18:38:36.064Z,21.76
2023-04-30T18:40:37.694Z,21.66
2023-04-30T18:42:39.294Z,21.65
2023-04-30T18:44:40.869Z,21.61
2023-04-30T18:46:42.483Z,21.52
2023-04-30T18:48:44.056Z,21.48
2023-04-30T18:50:47.199Z,21.41
2023-04-30T18:52:48.839Z,21.36
2023-04-30T18:54:50.369Z,21.33
2023-04-30T18:56:52.224Z,21.35
2023-04-30T18:58:54.353Z,21.35
2023-04-30T19:00:57.072Z,21.34
2023-04-30T19:02:58.805Z,21.33
2023-04-30T19:05:02.115Z,21.40
2023-04-30T19:07:05.160Z,21.39
2023-04-30T19:09:06.878Z,21.36
2023-04-30T19:11:08.513Z,21.34
2023-04-30T19:13:10.124Z,21.18
2023-04-30T19:15:15.233Z,21.18
2023-04-30T19:17:17.603Z,21.21
2023-04-30T19:19:20.422Z,21.23
2023-04-30T19:21:22.332Z,21.17
2023-04-30T19:23:25.418Z,21.23
2023-04-30T19:25:27.016Z,21.18
2023-04-30T19:27:28.566Z,21.10
2023-04-30T19:29:30.251Z,20.98
2023-04-30T19:31:32.788Z,20.96
2023-04-30T19:33:34.459Z,21.05
2023-04-30T19:35:36.288Z,21.00
2023-04-30T19:37:37.941Z,20.92
2023-04-30T19:39:40.895Z,20.91
2023-04-30T19:41:42.487Z,20.82
2023-04-30T19:43:44.094Z,20.74
2023-04-30T19:45:47.435Z,20.67
2023-04-30T19:47:49.106Z,20.71
2023-04-30T19:49:50.778Z,20.70
2023-04-30T19:51:52.941Z,20.70
2023-04-30T19:53:54.611Z,20.76
2023-04-30T19:55:57.908Z,20.68
2023-04-30T19:58:00.600Z,20.68
2023-04-30T20:00:03.404Z,20.68
2023-04-30T20:02:05.118Z,20.71
2023-04-30T20:04:07.119Z,20.67
2023-04-30T20:06:09.163Z,20.57
2023-04-30T20:08:10.787Z,20.54
2023-04-30T20:10:12.432Z,20.52
2023-04-30T20:12:15.567Z,20.42
2023-04-30T20:14:17.377Z,20.39
2023-04-30T20:16:19.150Z,20.39
2023-04-30T20:18:21.520Z,20.25
2023-04-30T20:20:23.271Z,20.18
2023-04-30T20:22:25.970Z,20.11
2023-04-30T20:24:27.660Z,20.08
2023-04-30T20:26:29.290Z,20.10
2023-04-30T20:28:33.328Z,20.11
2023-04-30T20:30:35.263Z,20.06
2023-04-30T20:32:37.287Z,20.08
2023-04-30T20:34:39.305Z,20.08
2023-04-30T20:36:40.912Z,20.06
2023-04-30T20:38:42.545Z,19.96
2023-04-30T20:40:45.724Z,19.96
2023-04-30T20:42:47.562Z,19.92
2023-04-30T20:44:50.686Z,19.97
2023-04-30T20:46:52.462Z,19.83
2023-04-30T20:48:54.732Z,19.78
2023-04-30T20:50:56.375Z,19.67
2023-04-30T20:52:58.278Z,19.69
2023-04-30T20:54:59.877Z,19.65
2023-04-30T20:57:01.494Z,19.60
2023-04-30T20:59:03.131Z,19.49
2023-04-30T21:01:06.378Z,19.40
2023-04-30T21:03:08.434Z,19.40
2023-04-30T21:05:10.573Z,19.36
2023-04-30T21:07:13.210Z,19.29
2023-04-30T21:09:14.746Z,19.24
2023-04-30T21:11:16.393Z,19.18
2023-04-30T21:13:18.034Z,19.20
2023-04-30T21:15:19.663Z,19.20
2023-04-30T21:17:23.211Z,19.15
2023-04-30T21:19:24.932Z,19.10
2023-04-30T21:21:27.088Z,19.09
2023-04-30T21:23:28.722Z,19.08
2023-04-30T21:25:30.498Z,19.01
2023-04-30T21:27:32.464Z,18.94
2023-04-30T21:29:34.855Z,18.92
2023-04-30T21:31:36.860Z,18.90
2023-04-30T21:33:41.097Z,18.84
2023-04-30T21:35:42.883Z,18.79
2023-04-30T21:37:45.838Z,18.83
2023-04-30T21:39:47.607Z,18.81
2023-04-30T21:41:49.201Z,18.88
2023-04-30T21:43:51.001Z,18.81
2023-04-30T21:45:52.879Z,18.77
2023-04-30T21:47:54.506Z,18.73
2023-04-30T21:49:57.840Z,18.64
2023-04-30T21:52:01.141Z,18.59
2023-04-30T21:54:02.713Z,18.57
2023-04-30T21:56:07.130Z,18.59
2023-04-30T21:58:10.139Z,18.53
2023-04-30T22:00:12.362Z,18.55
2023-04-30T22:04:21.984Z,18.62
2023-04-30T22:06:25.128Z,18.56
2023-04-30T22:08:28.248Z,18.56
2023-04-30T22:10:29.920Z,18.66
2023-04-30T22:12:31.845Z,18.66
2023-04-30T22:14:33.497Z,18.65
2023-04-30T22:16:35.224Z,18.59
2023-04-30T22:18:36.934Z,18.62
2023-04-30T22:20:38.619Z,18.60
2023-04-30T22:22:41.565Z,18.61
2023-04-30T22:24:43.454Z,18.56
2023-04-30T22:26:45.159Z,18.57
2023-04-30T22:28:46.840Z,18.54
2023-04-30T22:30:48.411Z,18.49
2023-04-30T22:32:50.067Z,18.50
2023-04-30T22:34:52.306Z,18.53
2023-04-30T22:36:53.924Z,18.44
2023-04-30T22:38:56.981Z,18.47
2023-04-30T22:40:59.033Z,18.46
2023-04-30T22:43:01.157Z,18.39
2023-04-30T22:45:02.907Z,18.34
2023-04-30T22:47:04.777Z,18.36
2023-04-30T22:49:07.637Z,18.43
2023-04-30T22:51:10.658Z,18.44
2023-04-30T22:53:12.251Z,18.39
2023-04-30T22:55:15.484Z,18.39
2023-04-30T22:57:17.084Z,18.51
2023-04-30T22:59:19.690Z,18.59
2023-04-30T23:01:21.329Z,18.59
2023-04-30T23:03:23.178Z,18.60
2023-04-30T23:05:25.138Z,18.60
2023-04-30T23:07:26.783Z,18.68
2023-04-30T23:09:31.149Z,18.68
2023-04-30T23:11:34.083Z,18.74
2023-04-30T23:13:35.672Z,18.77
2023-04-30T23:15:37.356Z,18.85
2023-04-30T23:17:39.007Z,18.86
2023-04-30T23:19:42.326Z,18.84
2023-04-30T23:21:43.952Z,18.85
2023-04-30T23:23:45.588Z,18.87
2023-04-30T23:25:47.139Z,18.82
2023-04-30T23:27:50.442Z,18.79
2023-04-30T23:29:52.087Z,18.75
2023-04-30T23:31:53.973Z,18.76
2023-04-30T23:33:55.604Z,18.74
2023-04-30T23:35:58.283Z,18.72
2023-04-30T23:37:59.891Z,18.70
2023-04-30T23:40:01.717Z,18.77
2023-04-30T23:42:03.337Z,18.72
2023-04-30T23:44:06.407Z,18.83
2023-04-30T23:46:08.141Z,18.83
2023-04-30T23:48:09.820Z,18.69
2023-04-30T23:50:11.708Z,18.69
2023-04-30T23:52:13.770Z,18.69
2023-04-30T23:54:15.348Z,18.63
2023-04-30T23:56:16.916Z,18.63
2023-04-30T23:58:18.713Z,18.67
